Ipoh, Ipoh Sultan Azlan Shah Airport (WMKI)

NameIpoh Sultan Azlan Shah Airport
CityIpoh
CountryMalaysia
ICAOWMKI
IATAIPH
Altitude130 feet
CoordinatesGoogle Map
Live Air TrafficLiveATC.net
METARWMKI 230800Z 19004KT 110V250 9999 FEW020 34/24 Q1007
2024-07-23 08:00:00 Wind: South (190°) 2.06 m/s - Visibility: > 10000 m - Temperature: 34 °C - Dew point: 24 °C - Humidity: 55.9% - Pressure: 1007 hPa

Sorry, no flights used the airport in this database.